<?xml version="1.0" encoding="UTF-8" standalone="no" ?>
<gpx xmlns="http://www.topografix.com/GPX/1/1" xmlns:xsi="http://www.w3.org/2001/XMLSchema-instance" xsi:schemaLocation="http://www.topografix.com/GPX/1/1 http://www.topografix.com/GPX/1/1/gpx.xsd" version="1.1" creator="VisuGPX - https://www.visugpx.com">
  <metadata>
    <name>j15, Corse du sud, Figari Charleroi</name>
    <desc><![CDATA[j15, Corse du sud, Figari Charleroi ; une organisation de [url=http://site.benb.fr/action/view/Corse_du_sud_(printemps_2015)]Bassée en Balade[/url].]]></desc>
  </metadata>
  <trk>
    <name><![CDATA[MAI-29-15 12:17:10]]></name>
    <trkseg>
      <trkpt lat="41.49934" lon="9.09681">
        <ele>16.96</ele>
        <time>2015-05-29T08:05:07Z</time>
      </trkpt>
      <trkpt lat="41.49934" lon="9.09681">
        <ele>11.19</ele>
        <time>2015-05-29T08:05:21Z</time>
      </trkpt>
      <trkpt lat="41.49934" lon="9.09681">
        <ele>8.31</ele>
        <time>2015-05-29T08:05:23Z</time>
      </trkpt>
      <trkpt lat="41.49934" lon="9.09681">
        <ele>7.83</ele>
        <time>2015-05-29T08:05:24Z</time>
      </trkpt>
      <trkpt lat="41.49934" lon="9.09681">
        <ele>11.67</ele>
        <time>2015-05-29T08:05:26Z</time>
      </trkpt>
      <trkpt lat="41.49934" lon="9.09681">
        <ele>14.56</ele>
        <time>2015-05-29T08:05:28Z</time>
      </trkpt>
      <trkpt lat="41.49931" lon="9.09682">
        <ele>15.52</ele>
        <time>2015-05-29T08:06:22Z</time>
      </trkpt>
      <trkpt lat="41.4993" lon="9.09687">
        <ele>15.52</ele>
        <time>2015-05-29T08:07:17Z</time>
      </trkpt>
      <trkpt lat="41.4993" lon="9.09687">
        <ele>16</ele>
        <time>2015-05-29T08:08:23Z</time>
      </trkpt>
      <trkpt lat="41.4993" lon="9.09689">
        <ele>16.48</ele>
        <time>2015-05-29T08:11:06Z</time>
      </trkpt>
      <trkpt lat="41.4993" lon="9.09689">
        <ele>19.36</ele>
        <time>2015-05-29T08:11:45Z</time>
      </trkpt>
      <trkpt lat="41.49929" lon="9.09691">
        <ele>18.88</ele>
        <time>2015-05-29T08:13:59Z</time>
      </trkpt>
      <trkpt lat="41.49929" lon="9.09691">
        <ele>15.52</ele>
        <time>2015-05-29T08:14:05Z</time>
      </trkpt>
      <trkpt lat="41.49929" lon="9.09691">
        <ele>15.52</ele>
        <time>2015-05-29T08:14:06Z</time>
      </trkpt>
      <trkpt lat="41.4993" lon="9.09691">
        <ele>15.04</ele>
        <time>2015-05-29T08:14:10Z</time>
      </trkpt>
      <trkpt lat="41.49936" lon="9.09692">
        <ele>13.12</ele>
        <time>2015-05-29T08:14:41Z</time>
      </trkpt>
      <trkpt lat="41.49934" lon="9.09693">
        <ele>9.75</ele>
        <time>2015-05-29T08:15:07Z</time>
      </trkpt>
      <trkpt lat="41.49934" lon="9.09693">
        <ele>4.46</ele>
        <time>2015-05-29T08:15:09Z</time>
      </trkpt>
      <trkpt lat="41.49934" lon="9.09693">
        <ele>3.5</ele>
        <time>2015-05-29T08:15:11Z</time>
      </trkpt>
      <trkpt lat="41.49933" lon="9.09691">
        <ele>6.39</ele>
        <time>2015-05-29T08:15:24Z</time>
      </trkpt>
      <trkpt lat="41.49924" lon="9.09693">
        <ele>4.46</ele>
        <time>2015-05-29T08:15:38Z</time>
      </trkpt>
      <trkpt lat="41.49922" lon="9.09694">
        <ele>3.98</ele>
        <time>2015-05-29T08:15:40Z</time>
      </trkpt>
      <trkpt lat="41.49918" lon="9.09702">
        <ele>3.5</ele>
        <time>2015-05-29T08:15:46Z</time>
      </trkpt>
      <trkpt lat="41.4993" lon="9.09709">
        <ele>4.94</ele>
        <time>2015-05-29T08:15:52Z</time>
      </trkpt>
      <trkpt lat="41.49937" lon="9.09709">
        <ele>5.91</ele>
        <time>2015-05-29T08:15:54Z</time>
      </trkpt>
      <trkpt lat="41.49951" lon="9.09709">
        <ele>9.27</ele>
        <time>2015-05-29T08:15:57Z</time>
      </trkpt>
      <trkpt lat="41.49962" lon="9.09709">
        <ele>12.63</ele>
        <time>2015-05-29T08:15:59Z</time>
      </trkpt>
      <trkpt lat="41.49973" lon="9.09711">
        <ele>14.56</ele>
        <time>2015-05-29T08:16:01Z</time>
      </trkpt>
      <trkpt lat="41.49978" lon="9.09713">
        <ele>15.04</ele>
        <time>2015-05-29T08:16:02Z</time>
      </trkpt>
      <trkpt lat="41.49983" lon="9.09716">
        <ele>15.04</ele>
        <time>2015-05-29T08:16:03Z</time>
      </trkpt>
      <trkpt lat="41.49988" lon="9.09719">
        <ele>15.04</ele>
        <time>2015-05-29T08:16:04Z</time>
      </trkpt>
      <trkpt lat="41.49993" lon="9.09723">
        <ele>15.04</ele>
        <time>2015-05-29T08:16:05Z</time>
      </trkpt>
      <trkpt lat="41.49998" lon="9.09727">
        <ele>14.56</ele>
        <time>2015-05-29T08:16:06Z</time>
      </trkpt>
      <trkpt lat="41.50007" lon="9.09737">
        <ele>14.56</ele>
        <time>2015-05-29T08:16:08Z</time>
      </trkpt>
      <trkpt lat="41.50055" lon="9.098">
        <ele>14.08</ele>
        <time>2015-05-29T08:16:20Z</time>
      </trkpt>
      <trkpt lat="41.50082" lon="9.09827">
        <ele>8.79</ele>
        <time>2015-05-29T08:16:27Z</time>
      </trkpt>
      <trkpt lat="41.50086" lon="9.09829">
        <ele>16.96</ele>
        <time>2015-05-29T08:16:28Z</time>
      </trkpt>
      <trkpt lat="41.5009" lon="9.09831">
        <ele>16.48</ele>
        <time>2015-05-29T08:16:29Z</time>
      </trkpt>
      <trkpt lat="41.50094" lon="9.09832">
        <ele>13.6</ele>
        <time>2015-05-29T08:16:30Z</time>
      </trkpt>
      <trkpt lat="41.50097" lon="9.09832">
        <ele>12.63</ele>
        <time>2015-05-29T08:16:31Z</time>
      </trkpt>
      <trkpt lat="41.50102" lon="9.09832">
        <ele>10.71</ele>
        <time>2015-05-29T08:16:32Z</time>
      </trkpt>
      <trkpt lat="41.50106" lon="9.09831">
        <ele>7.83</ele>
        <time>2015-05-29T08:16:33Z</time>
      </trkpt>
      <trkpt lat="41.5011" lon="9.09829">
        <ele>7.83</ele>
        <time>2015-05-29T08:16:34Z</time>
      </trkpt>
      <trkpt lat="41.50114" lon="9.09826">
        <ele>7.83</ele>
        <time>2015-05-29T08:16:35Z</time>
      </trkpt>
      <trkpt lat="41.50118" lon="9.09821">
        <ele>8.31</ele>
        <time>2015-05-29T08:16:36Z</time>
      </trkpt>
      <trkpt lat="41.50121" lon="9.09816">
        <ele>9.75</ele>
        <time>2015-05-29T08:16:37Z</time>
      </trkpt>
      <trkpt lat="41.50125" lon="9.09811">
        <ele>13.12</ele>
        <time>2015-05-29T08:16:38Z</time>
      </trkpt>
      <trkpt lat="41.50187" lon="9.09719">
        <ele>12.63</ele>
        <time>2015-05-29T08:16:53Z</time>
      </trkpt>
      <trkpt lat="41.50193" lon="9.09715">
        <ele>11.19</ele>
        <time>2015-05-29T08:16:54Z</time>
      </trkpt>
      <trkpt lat="41.50198" lon="9.09712">
        <ele>8.79</ele>
        <time>2015-05-29T08:16:55Z</time>
      </trkpt>
      <trkpt lat="41.50204" lon="9.0971">
        <ele>5.91</ele>
        <time>2015-05-29T08:16:56Z</time>
      </trkpt>
      <trkpt lat="41.5021" lon="9.09708">
        <ele>5.42</ele>
        <time>2015-05-29T08:16:57Z</time>
      </trkpt>
      <trkpt lat="41.50216" lon="9.09707">
        <ele>5.42</ele>
        <time>2015-05-29T08:16:58Z</time>
      </trkpt>
      <trkpt lat="41.50227" lon="9.09706">
        <ele>4.94</ele>
        <time>2015-05-29T08:17:00Z</time>
      </trkpt>
      <trkpt lat="41.50233" lon="9.09706">
        <ele>4.46</ele>
        <time>2015-05-29T08:17:01Z</time>
      </trkpt>
      <trkpt lat="41.50238" lon="9.09708">
        <ele>4.94</ele>
        <time>2015-05-29T08:17:02Z</time>
      </trkpt>
      <trkpt lat="41.50244" lon="9.0971">
        <ele>4.46</ele>
        <time>2015-05-29T08:17:03Z</time>
      </trkpt>
      <trkpt lat="41.50249" lon="9.09713">
        <ele>3.98</ele>
        <time>2015-05-29T08:17:04Z</time>
      </trkpt>
      <trkpt lat="41.50253" lon="9.09717">
        <ele>3.98</ele>
        <time>2015-05-29T08:17:05Z</time>
      </trkpt>
      <trkpt lat="41.50258" lon="9.09722">
        <ele>4.46</ele>
        <time>2015-05-29T08:17:06Z</time>
      </trkpt>
      <trkpt lat="41.50262" lon="9.09727">
        <ele>4.46</ele>
        <time>2015-05-29T08:17:07Z</time>
      </trkpt>
      <trkpt lat="41.50377" lon="9.09911">
        <ele>5.91</ele>
        <time>2015-05-29T08:17:32Z</time>
      </trkpt>
      <trkpt lat="41.50552" lon="9.10163">
        <ele>6.39</ele>
        <time>2015-05-29T08:17:59Z</time>
      </trkpt>
      <trkpt lat="41.50653" lon="9.10315">
        <ele>8.31</ele>
        <time>2015-05-29T08:18:12Z</time>
      </trkpt>
      <trkpt lat="41.50662" lon="9.10326">
        <ele>6.39</ele>
        <time>2015-05-29T08:18:13Z</time>
      </trkpt>
      <trkpt lat="41.50779" lon="9.10496">
        <ele>10.23</ele>
        <time>2015-05-29T08:18:27Z</time>
      </trkpt>
      <trkpt lat="41.50797" lon="9.10515">
        <ele>14.56</ele>
        <time>2015-05-29T08:18:29Z</time>
      </trkpt>
      <trkpt lat="41.50806" lon="9.10525">
        <ele>16.96</ele>
        <time>2015-05-29T08:18:30Z</time>
      </trkpt>
      <trkpt lat="41.50824" lon="9.10542">
        <ele>19.36</ele>
        <time>2015-05-29T08:18:32Z</time>
      </trkpt>
      <trkpt lat="41.5093" lon="9.10687">
        <ele>19.36</ele>
        <time>2015-05-29T08:18:46Z</time>
      </trkpt>
      <trkpt lat="41.50953" lon="9.10729">
        <ele>20.81</ele>
        <time>2015-05-29T08:18:51Z</time>
      </trkpt>
      <trkpt lat="41.50966" lon="9.10777">
        <ele>22.73</ele>
        <time>2015-05-29T08:18:58Z</time>
      </trkpt>
      <trkpt lat="41.50963" lon="9.10784">
        <ele>23.21</ele>
        <time>2015-05-29T08:18:59Z</time>
      </trkpt>
      <trkpt lat="41.50963" lon="9.10787">
        <ele>23.69</ele>
        <time>2015-05-29T08:19:00Z</time>
      </trkpt>
      <trkpt lat="41.50964" lon="9.10791">
        <ele>23.69</ele>
        <time>2015-05-29T08:19:01Z</time>
      </trkpt>
      <trkpt lat="41.50965" lon="9.10797">
        <ele>22.25</ele>
        <time>2015-05-29T08:19:03Z</time>
      </trkpt>
      <trkpt lat="41.50961" lon="9.108">
        <ele>20.81</ele>
        <time>2015-05-29T08:19:06Z</time>
      </trkpt>
      <trkpt lat="41.50973" lon="9.1077">
        <ele>20.81</ele>
        <time>2015-05-29T08:19:24Z</time>
      </trkpt>
      <trkpt lat="41.50972" lon="9.10768">
        <ele>21.77</ele>
        <time>2015-05-29T08:20:00Z</time>
      </trkpt>
      <trkpt lat="41.50971" lon="9.10768">
        <ele>16.48</ele>
        <time>2015-05-29T08:20:19Z</time>
      </trkpt>
      <trkpt lat="41.50971" lon="9.10768">
        <ele>13.12</ele>
        <time>2015-05-29T08:20:20Z</time>
      </trkpt>
      <trkpt lat="41.50971" lon="9.10768">
        <ele>4.94</ele>
        <time>2015-05-29T08:20:22Z</time>
      </trkpt>
      <trkpt lat="41.50971" lon="9.10767">
        <ele>7.83</ele>
        <time>2015-05-29T08:20:23Z</time>
      </trkpt>
      <trkpt lat="41.50969" lon="9.10765">
        <ele>10.23</ele>
        <time>2015-05-29T08:20:24Z</time>
      </trkpt>
      <trkpt lat="41.50968" lon="9.10764">
        <ele>10.23</ele>
        <time>2015-05-29T08:20:25Z</time>
      </trkpt>
      <trkpt lat="41.50966" lon="9.10762">
        <ele>4.46</ele>
        <time>2015-05-29T08:20:26Z</time>
      </trkpt>
      <trkpt lat="41.50945" lon="9.10726">
        <ele>6.87</ele>
        <time>2015-05-29T08:20:31Z</time>
      </trkpt>
      <trkpt lat="41.50911" lon="9.10668">
        <ele>3.98</ele>
        <time>2015-05-29T08:20:35Z</time>
      </trkpt>
      <trkpt lat="41.50885" lon="9.10635">
        <ele>-0.34</ele>
        <time>2015-05-29T08:20:37Z</time>
      </trkpt>
      <trkpt lat="41.50858" lon="9.10601">
        <ele>-4.67</ele>
        <time>2015-05-29T08:20:39Z</time>
      </trkpt>
      <trkpt lat="41.50718" lon="9.10433">
        <ele>-10.44</ele>
        <time>2015-05-29T08:20:41Z</time>
      </trkpt>
      <trkpt lat="41.50636" lon="9.10309">
        <ele>-16.21</ele>
        <time>2015-05-29T08:20:44Z</time>
      </trkpt>
      <trkpt lat="41.5058" lon="9.1022">
        <ele>-21.49</ele>
        <time>2015-05-29T08:20:46Z</time>
      </trkpt>
      <trkpt lat="41.50523" lon="9.10123">
        <ele>-25.34</ele>
        <time>2015-05-29T08:20:48Z</time>
      </trkpt>
      <trkpt lat="41.50466" lon="9.10019">
        <ele>-29.66</ele>
        <time>2015-05-29T08:20:50Z</time>
      </trkpt>
      <trkpt lat="41.50409" lon="9.09908">
        <ele>-33.51</ele>
        <time>2015-05-29T08:20:52Z</time>
      </trkpt>
      <trkpt lat="41.50341" lon="9.09829">
        <ele>-34.95</ele>
        <time>2015-05-29T08:20:53Z</time>
      </trkpt>
      <trkpt lat="41.50254" lon="9.09703">
        <ele>-39.76</ele>
        <time>2015-05-29T08:20:55Z</time>
      </trkpt>
      <trkpt lat="41.50199" lon="9.09639">
        <ele>-43.12</ele>
        <time>2015-05-29T08:20:56Z</time>
      </trkpt>
      <trkpt lat="41.50037" lon="9.09429">
        <ele>-46.01</ele>
        <time>2015-05-29T08:20:59Z</time>
      </trkpt>
      <trkpt lat="41.49936" lon="9.09279">
        <ele>-42.16</ele>
        <time>2015-05-29T08:21:01Z</time>
      </trkpt>
      <trkpt lat="41.49886" lon="9.092">
        <ele>-38.8</ele>
        <time>2015-05-29T08:21:02Z</time>
      </trkpt>
      <trkpt lat="41.49836" lon="9.0912">
        <ele>-34.95</ele>
        <time>2015-05-29T08:21:03Z</time>
      </trkpt>
      <trkpt lat="41.49787" lon="9.0904">
        <ele>-33.51</ele>
        <time>2015-05-29T08:21:04Z</time>
      </trkpt>
      <trkpt lat="41.49738" lon="9.08959">
        <ele>-30.14</ele>
        <time>2015-05-29T08:21:05Z</time>
      </trkpt>
      <trkpt lat="41.4969" lon="9.08879">
        <ele>-30.14</ele>
        <time>2015-05-29T08:21:06Z</time>
      </trkpt>
      <trkpt lat="41.49642" lon="9.08799">
        <ele>-28.7</ele>
        <time>2015-05-29T08:21:07Z</time>
      </trkpt>
      <trkpt lat="41.49493" lon="9.08565">
        <ele>-25.82</ele>
        <time>2015-05-29T08:21:10Z</time>
      </trkpt>
      <trkpt lat="41.49107" lon="9.08077">
        <ele>-22.45</ele>
        <time>2015-05-29T08:21:17Z</time>
      </trkpt>
      <trkpt lat="41.48606" lon="9.07589">
        <ele>-21.01</ele>
        <time>2015-05-29T08:21:25Z</time>
      </trkpt>
      <trkpt lat="41.48257" lon="9.07315">
        <ele>-19.57</ele>
        <time>2015-05-29T08:21:30Z</time>
      </trkpt>
      <trkpt lat="41.47581" lon="9.06842">
        <ele>-19.57</ele>
        <time>2015-05-29T08:21:39Z</time>
      </trkpt>
      <trkpt lat="41.47502" lon="9.06799">
        <ele>-19.57</ele>
        <time>2015-05-29T08:21:40Z</time>
      </trkpt>
      <trkpt lat="41.46726" lon="9.06392">
        <ele>-16.69</ele>
        <time>2015-05-29T08:21:49Z</time>
      </trkpt>
      <trkpt lat="41.45599" lon="9.0582">
        <ele>323.62</ele>
        <time>2015-05-29T08:22:01Z</time>
      </trkpt>
      <trkpt lat="41.44872" lon="9.05371">
        <ele>393.32</ele>
        <time>2015-05-29T08:22:09Z</time>
      </trkpt>
      <trkpt lat="41.43736" lon="9.04835">
        <ele>530.3</ele>
        <time>2015-05-29T08:22:21Z</time>
      </trkpt>
      <trkpt lat="41.42695" lon="9.04303">
        <ele>654.31</ele>
        <time>2015-05-29T08:22:32Z</time>
      </trkpt>
      <trkpt lat="41.41747" lon="9.03795">
        <ele>742.76</ele>
        <time>2015-05-29T08:22:42Z</time>
      </trkpt>
      <trkpt lat="41.41228" lon="9.03373">
        <ele>781.21</ele>
        <time>2015-05-29T08:22:48Z</time>
      </trkpt>
      <trkpt lat="41.40821" lon="9.02899">
        <ele>810.53</ele>
        <time>2015-05-29T08:22:53Z</time>
      </trkpt>
      <trkpt lat="41.40405" lon="9.02194">
        <ele>844.18</ele>
        <time>2015-05-29T08:22:59Z</time>
      </trkpt>
      <trkpt lat="41.40227" lon="9.01639">
        <ele>869.17</ele>
        <time>2015-05-29T08:23:03Z</time>
      </trkpt>
      <trkpt lat="41.4012" lon="9.00881">
        <ele>900.41</ele>
        <time>2015-05-29T08:23:08Z</time>
      </trkpt>
      <trkpt lat="41.4012" lon="9.00251">
        <ele>922.04</ele>
        <time>2015-05-29T08:23:12Z</time>
      </trkpt>
      <trkpt lat="41.40255" lon="8.9948">
        <ele>953.28</ele>
        <time>2015-05-29T08:23:17Z</time>
      </trkpt>
      <trkpt lat="41.40468" lon="8.98763">
        <ele>986.45</ele>
        <time>2015-05-29T08:23:22Z</time>
      </trkpt>
      <trkpt lat="41.40726" lon="8.98249">
        <ele>1004.72</ele>
        <time>2015-05-29T08:23:26Z</time>
      </trkpt>
      <trkpt lat="41.41096" lon="8.97686">
        <ele>1020.58</ele>
        <time>2015-05-29T08:23:31Z</time>
      </trkpt>
      <trkpt lat="41.41515" lon="8.9724">
        <ele>1049.42</ele>
        <time>2015-05-29T08:23:36Z</time>
      </trkpt>
      <trkpt lat="41.42192" lon="8.96714">
        <ele>1090.27</ele>
        <time>2015-05-29T08:23:43Z</time>
      </trkpt>
      <trkpt lat="41.45458" lon="8.94303">
        <ele>1273.4</ele>
        <time>2015-05-29T08:24:15Z</time>
      </trkpt>
      <trkpt lat="41.47427" lon="8.93077">
        <ele>3130.67</ele>
        <time>2015-05-29T08:24:33Z</time>
      </trkpt>
      <trkpt lat="41.47542" lon="8.92997">
        <ele>3147.97</ele>
        <time>2015-05-29T08:24:34Z</time>
      </trkpt>
      <trkpt lat="41.4885" lon="8.92169">
        <ele>3256.12</ele>
        <time>2015-05-29T08:24:45Z</time>
      </trkpt>
      <trkpt lat="41.52627" lon="8.90385">
        <ele>3320.05</ele>
        <time>2015-05-29T08:25:16Z</time>
      </trkpt>
      <trkpt lat="41.54379" lon="8.88249">
        <ele>3806.96</ele>
        <time>2015-05-29T08:25:27Z</time>
      </trkpt>
      <trkpt lat="41.57813" lon="8.85833">
        <ele>4251.09</ele>
        <time>2015-05-29T08:25:52Z</time>
      </trkpt>
      <trkpt lat="41.61032" lon="8.83563">
        <ele>4641.86</ele>
        <time>2015-05-29T08:26:15Z</time>
      </trkpt>
      <trkpt lat="41.64029" lon="8.81451">
        <ele>4971.6</ele>
        <time>2015-05-29T08:26:36Z</time>
      </trkpt>
      <trkpt lat="41.67241" lon="8.79192">
        <ele>5287.87</ele>
        <time>2015-05-29T08:26:58Z</time>
      </trkpt>
      <trkpt lat="41.70643" lon="8.768">
        <ele>5655.09</ele>
        <time>2015-05-29T08:27:21Z</time>
      </trkpt>
      <trkpt lat="41.74816" lon="8.73858">
        <ele>6103.07</ele>
        <time>2015-05-29T08:27:49Z</time>
      </trkpt>
      <trkpt lat="41.78883" lon="8.70976">
        <ele>6501.05</ele>
        <time>2015-05-29T08:28:16Z</time>
      </trkpt>
      <trkpt lat="41.82856" lon="8.68175">
        <ele>6860.11</ele>
        <time>2015-05-29T08:28:42Z</time>
      </trkpt>
      <trkpt lat="41.86872" lon="8.65334">
        <ele>7200.41</ele>
        <time>2015-05-29T08:29:08Z</time>
      </trkpt>
      <trkpt lat="41.90164" lon="8.63007">
        <ele>7446.51</ele>
        <time>2015-05-29T08:29:29Z</time>
      </trkpt>
      <trkpt lat="41.94301" lon="8.60074">
        <ele>7732.98</ele>
        <time>2015-05-29T08:29:55Z</time>
      </trkpt>
      <trkpt lat="41.9848" lon="8.57105">
        <ele>8032.91</ele>
        <time>2015-05-29T08:30:21Z</time>
      </trkpt>
      <trkpt lat="42.02042" lon="8.54564">
        <ele>8279.49</ele>
        <time>2015-05-29T08:30:43Z</time>
      </trkpt>
      <trkpt lat="42.04985" lon="8.52459">
        <ele>8479.93</ele>
        <time>2015-05-29T08:31:01Z</time>
      </trkpt>
      <trkpt lat="42.07632" lon="8.50557">
        <ele>8652.96</ele>
        <time>2015-05-29T08:31:17Z</time>
      </trkpt>
      <trkpt lat="42.10824" lon="8.48297">
        <ele>8846.67</ele>
        <time>2015-05-29T08:31:36Z</time>
      </trkpt>
      <trkpt lat="42.13884" lon="8.46048">
        <ele>9006.73</ele>
        <time>2015-05-29T08:31:54Z</time>
      </trkpt>
      <trkpt lat="42.1797" lon="8.43169">
        <ele>9193.71</ele>
        <time>2015-05-29T08:32:18Z</time>
      </trkpt>
      <trkpt lat="42.24395" lon="8.38575">
        <ele>9592.65</ele>
        <time>2015-05-29T08:32:56Z</time>
      </trkpt>
      <trkpt lat="42.29077" lon="8.35217">
        <ele>9901.24</ele>
        <time>2015-05-29T08:33:24Z</time>
      </trkpt>
      <trkpt lat="42.33867" lon="8.31755">
        <ele>10214.15</ele>
        <time>2015-05-29T08:33:53Z</time>
      </trkpt>
      <trkpt lat="42.36654" lon="8.29752">
        <ele>10398.24</ele>
        <time>2015-05-29T08:34:10Z</time>
      </trkpt>
      <trkpt lat="42.39264" lon="8.27864">
        <ele>10571.28</ele>
        <time>2015-05-29T08:34:26Z</time>
      </trkpt>
      <trkpt lat="42.41713" lon="8.26078">
        <ele>10731.33</ele>
        <time>2015-05-29T08:34:41Z</time>
      </trkpt>
      <trkpt lat="42.45024" lon="8.23626">
        <ele>10918.79</ele>
        <time>2015-05-29T08:35:01Z</time>
      </trkpt>
      <trkpt lat="42.47679" lon="8.21773">
        <ele>11046.65</ele>
        <time>2015-05-29T08:35:17Z</time>
      </trkpt>
      <trkpt lat="42.49936" lon="8.20181">
        <ele>11087.5</ele>
        <time>2015-05-29T08:35:31Z</time>
      </trkpt>
      <trkpt lat="42.51698" lon="8.1895">
        <ele>11132.68</ele>
        <time>2015-05-29T08:35:42Z</time>
      </trkpt>
      <trkpt lat="42.56304" lon="8.15642">
        <ele>11133.65</ele>
        <time>2015-05-29T08:36:10Z</time>
      </trkpt>
      <trkpt lat="42.60982" lon="8.12167">
        <ele>10582.81</ele>
        <time>2015-05-29T08:36:38Z</time>
      </trkpt>
      <trkpt lat="42.6609" lon="8.0845">
        <ele>10584.73</ele>
        <time>2015-05-29T08:37:09Z</time>
      </trkpt>
      <trkpt lat="42.72353" lon="8.03872">
        <ele>10586.66</ele>
        <time>2015-05-29T08:37:47Z</time>
      </trkpt>
      <trkpt lat="42.78456" lon="7.99406">
        <ele>10586.18</ele>
        <time>2015-05-29T08:38:24Z</time>
      </trkpt>
      <trkpt lat="42.85215" lon="7.9444">
        <ele>10586.66</ele>
        <time>2015-05-29T08:39:05Z</time>
      </trkpt>
      <trkpt lat="42.92144" lon="7.89357">
        <ele>10586.18</ele>
        <time>2015-05-29T08:39:47Z</time>
      </trkpt>
      <trkpt lat="42.98405" lon="7.84743">
        <ele>10584.73</ele>
        <time>2015-05-29T08:40:25Z</time>
      </trkpt>
      <trkpt lat="43.04655" lon="7.80132">
        <ele>10582.33</ele>
        <time>2015-05-29T08:41:03Z</time>
      </trkpt>
      <trkpt lat="43.0941" lon="7.76609">
        <ele>10584.25</ele>
        <time>2015-05-29T08:41:32Z</time>
      </trkpt>
      <trkpt lat="43.1367" lon="7.73446">
        <ele>10596.75</ele>
        <time>2015-05-29T08:41:58Z</time>
      </trkpt>
      <trkpt lat="43.1727" lon="7.7078">
        <ele>10611.17</ele>
        <time>2015-05-29T08:42:20Z</time>
      </trkpt>
      <trkpt lat="43.22668" lon="7.66776">
        <ele>10631.84</ele>
        <time>2015-05-29T08:42:53Z</time>
      </trkpt>
      <trkpt lat="43.25933" lon="7.6432">
        <ele>10645.3</ele>
        <time>2015-05-29T08:43:13Z</time>
      </trkpt>
      <trkpt lat="43.31323" lon="7.60275">
        <ele>10638.57</ele>
        <time>2015-05-29T08:43:46Z</time>
      </trkpt>
      <trkpt lat="43.35402" lon="7.5725">
        <ele>10644.33</ele>
        <time>2015-05-29T08:44:11Z</time>
      </trkpt>
      <trkpt lat="43.3966" lon="7.54076">
        <ele>10594.83</ele>
        <time>2015-05-29T08:44:37Z</time>
      </trkpt>
      <trkpt lat="43.45046" lon="7.50053">
        <ele>10589.54</ele>
        <time>2015-05-29T08:45:10Z</time>
      </trkpt>
      <trkpt lat="43.49932" lon="7.46368">
        <ele>10591.94</ele>
        <time>2015-05-29T08:45:40Z</time>
      </trkpt>
      <trkpt lat="43.55147" lon="7.42433">
        <ele>10594.35</ele>
        <time>2015-05-29T08:46:12Z</time>
      </trkpt>
      <trkpt lat="43.61343" lon="7.37747">
        <ele>10601.56</ele>
        <time>2015-05-29T08:46:50Z</time>
      </trkpt>
      <trkpt lat="43.62779" lon="7.36572">
        <ele>10599.63</ele>
        <time>2015-05-29T08:46:59Z</time>
      </trkpt>
      <trkpt lat="43.64637" lon="7.34888">
        <ele>10596.75</ele>
        <time>2015-05-29T08:47:11Z</time>
      </trkpt>
      <trkpt lat="43.68353" lon="7.31495">
        <ele>10595.31</ele>
        <time>2015-05-29T08:47:35Z</time>
      </trkpt>
      <trkpt lat="43.72695" lon="7.27533">
        <ele>10584.73</ele>
        <time>2015-05-29T08:48:03Z</time>
      </trkpt>
      <trkpt lat="43.78273" lon="7.22417">
        <ele>10578</ele>
        <time>2015-05-29T08:48:39Z</time>
      </trkpt>
      <trkpt lat="43.84467" lon="7.16713">
        <ele>10576.08</ele>
        <time>2015-05-29T08:49:19Z</time>
      </trkpt>
      <trkpt lat="43.90671" lon="7.10996">
        <ele>10575.12</ele>
        <time>2015-05-29T08:49:59Z</time>
      </trkpt>
      <trkpt lat="43.97655" lon="7.04545">
        <ele>10575.12</ele>
        <time>2015-05-29T08:50:44Z</time>
      </trkpt>
      <trkpt lat="44.03395" lon="6.99219">
        <ele>10575.6</ele>
        <time>2015-05-29T08:51:21Z</time>
      </trkpt>
      <trkpt lat="44.08671" lon="6.94317">
        <ele>10574.16</ele>
        <time>2015-05-29T08:51:55Z</time>
      </trkpt>
      <trkpt lat="44.14258" lon="6.89112">
        <ele>10576.08</ele>
        <time>2015-05-29T08:52:31Z</time>
      </trkpt>
      <trkpt lat="44.20321" lon="6.8344">
        <ele>10576.08</ele>
        <time>2015-05-29T08:53:10Z</time>
      </trkpt>
      <trkpt lat="44.25155" lon="6.78915">
        <ele>10575.6</ele>
        <time>2015-05-29T08:53:41Z</time>
      </trkpt>
      <trkpt lat="44.3046" lon="6.73946">
        <ele>10572.72</ele>
        <time>2015-05-29T08:54:15Z</time>
      </trkpt>
      <trkpt lat="44.34984" lon="6.69688">
        <ele>10568.87</ele>
        <time>2015-05-29T08:54:44Z</time>
      </trkpt>
      <trkpt lat="44.39046" lon="6.65853">
        <ele>10570.31</ele>
        <time>2015-05-29T08:55:10Z</time>
      </trkpt>
      <trkpt lat="44.4344" lon="6.61708">
        <ele>10570.79</ele>
        <time>2015-05-29T08:55:38Z</time>
      </trkpt>
      <trkpt lat="44.47195" lon="6.58113">
        <ele>10570.31</ele>
        <time>2015-05-29T08:56:02Z</time>
      </trkpt>
      <trkpt lat="44.4837" lon="6.56782">
        <ele>10570.31</ele>
        <time>2015-05-29T08:56:10Z</time>
      </trkpt>
      <trkpt lat="44.4961" lon="6.55164">
        <ele>10569.83</ele>
        <time>2015-05-29T08:56:19Z</time>
      </trkpt>
      <trkpt lat="44.52553" lon="6.51089">
        <ele>10568.39</ele>
        <time>2015-05-29T08:56:41Z</time>
      </trkpt>
      <trkpt lat="44.55617" lon="6.46831">
        <ele>10572.24</ele>
        <time>2015-05-29T08:57:04Z</time>
      </trkpt>
      <trkpt lat="44.59867" lon="6.40907">
        <ele>10578.49</ele>
        <time>2015-05-29T08:57:36Z</time>
      </trkpt>
      <trkpt lat="44.6199" lon="6.37936">
        <ele>10583.77</ele>
        <time>2015-05-29T08:57:52Z</time>
      </trkpt>
      <trkpt lat="44.64384" lon="6.34602">
        <ele>10589.06</ele>
        <time>2015-05-29T08:58:10Z</time>
      </trkpt>
      <trkpt lat="44.67586" lon="6.30162">
        <ele>10587.62</ele>
        <time>2015-05-29T08:58:34Z</time>
      </trkpt>
      <trkpt lat="44.70648" lon="6.25891">
        <ele>10589.06</ele>
        <time>2015-05-29T08:58:57Z</time>
      </trkpt>
      <trkpt lat="44.7385" lon="6.21426">
        <ele>10589.06</ele>
        <time>2015-05-29T08:59:21Z</time>
      </trkpt>
      <trkpt lat="44.7705" lon="6.16951">
        <ele>10590.98</ele>
        <time>2015-05-29T08:59:45Z</time>
      </trkpt>
      <trkpt lat="44.80531" lon="6.12129">
        <ele>10583.77</ele>
        <time>2015-05-29T09:00:11Z</time>
      </trkpt>
      <trkpt lat="44.84267" lon="6.06911">
        <ele>10573.2</ele>
        <time>2015-05-29T09:00:39Z</time>
      </trkpt>
      <trkpt lat="44.88267" lon="6.01319">
        <ele>10567.91</ele>
        <time>2015-05-29T09:01:09Z</time>
      </trkpt>
      <trkpt lat="44.90562" lon="5.9819">
        <ele>10567.91</ele>
        <time>2015-05-29T09:01:26Z</time>
      </trkpt>
      <trkpt lat="44.91862" lon="5.96662">
        <ele>10566.95</ele>
        <time>2015-05-29T09:01:35Z</time>
      </trkpt>
      <trkpt lat="44.93232" lon="5.95246">
        <ele>10566.47</ele>
        <time>2015-05-29T09:01:44Z</time>
      </trkpt>
      <trkpt lat="44.96035" lon="5.92522">
        <ele>10566.47</ele>
        <time>2015-05-29T09:02:02Z</time>
      </trkpt>
      <trkpt lat="44.99776" lon="5.88911">
        <ele>10571.76</ele>
        <time>2015-05-29T09:02:26Z</time>
      </trkpt>
      <trkpt lat="45.03205" lon="5.85593">
        <ele>10572.72</ele>
        <time>2015-05-29T09:02:48Z</time>
      </trkpt>
      <trkpt lat="45.06162" lon="5.82724">
        <ele>10571.28</ele>
        <time>2015-05-29T09:03:07Z</time>
      </trkpt>
      <trkpt lat="45.09278" lon="5.79714">
        <ele>10565.99</ele>
        <time>2015-05-29T09:03:27Z</time>
      </trkpt>
      <trkpt lat="45.12395" lon="5.76706">
        <ele>10564.07</ele>
        <time>2015-05-29T09:03:47Z</time>
      </trkpt>
      <trkpt lat="45.15359" lon="5.73841">
        <ele>10564.55</ele>
        <time>2015-05-29T09:04:06Z</time>
      </trkpt>
      <trkpt lat="45.18637" lon="5.70674">
        <ele>10561.66</ele>
        <time>2015-05-29T09:04:27Z</time>
      </trkpt>
      <trkpt lat="45.22084" lon="5.67403">
        <ele>10555.41</ele>
        <time>2015-05-29T09:04:49Z</time>
      </trkpt>
      <trkpt lat="45.26145" lon="5.63549">
        <ele>10553.97</ele>
        <time>2015-05-29T09:05:15Z</time>
      </trkpt>
      <trkpt lat="45.30204" lon="5.59683">
        <ele>10554.45</ele>
        <time>2015-05-29T09:05:41Z</time>
      </trkpt>
      <trkpt lat="45.34726" lon="5.55342">
        <ele>10553.49</ele>
        <time>2015-05-29T09:06:10Z</time>
      </trkpt>
      <trkpt lat="45.38787" lon="5.5147">
        <ele>10550.13</ele>
        <time>2015-05-29T09:06:36Z</time>
      </trkpt>
      <trkpt lat="45.43616" lon="5.46842">
        <ele>10551.09</ele>
        <time>2015-05-29T09:07:07Z</time>
      </trkpt>
      <trkpt lat="45.47048" lon="5.43561">
        <ele>10551.09</ele>
        <time>2015-05-29T09:07:29Z</time>
      </trkpt>
      <trkpt lat="45.50796" lon="5.3998">
        <ele>10549.64</ele>
        <time>2015-05-29T09:07:53Z</time>
      </trkpt>
      <trkpt lat="45.54691" lon="5.36224">
        <ele>10543.4</ele>
        <time>2015-05-29T09:08:18Z</time>
      </trkpt>
      <trkpt lat="45.59988" lon="5.31121">
        <ele>10540.03</ele>
        <time>2015-05-29T09:08:52Z</time>
      </trkpt>
      <trkpt lat="45.65777" lon="5.25594">
        <ele>10538.59</ele>
        <time>2015-05-29T09:09:29Z</time>
      </trkpt>
      <trkpt lat="45.71249" lon="5.20349">
        <ele>10539.55</ele>
        <time>2015-05-29T09:10:04Z</time>
      </trkpt>
      <trkpt lat="45.76725" lon="5.15101">
        <ele>10539.07</ele>
        <time>2015-05-29T09:10:39Z</time>
      </trkpt>
      <trkpt lat="45.81885" lon="5.10156">
        <ele>10543.4</ele>
        <time>2015-05-29T09:11:12Z</time>
      </trkpt>
      <trkpt lat="45.87058" lon="5.05216">
        <ele>10549.16</ele>
        <time>2015-05-29T09:11:45Z</time>
      </trkpt>
      <trkpt lat="45.91608" lon="5.00866">
        <ele>10554.93</ele>
        <time>2015-05-29T09:12:14Z</time>
      </trkpt>
      <trkpt lat="45.95857" lon="4.96817">
        <ele>10553.01</ele>
        <time>2015-05-29T09:12:41Z</time>
      </trkpt>
      <trkpt lat="45.9839" lon="4.94459">
        <ele>10549.16</ele>
        <time>2015-05-29T09:12:57Z</time>
      </trkpt>
      <trkpt lat="45.99878" lon="4.93267">
        <ele>10548.68</ele>
        <time>2015-05-29T09:13:06Z</time>
      </trkpt>
      <trkpt lat="46.01418" lon="4.9219">
        <ele>10540.51</ele>
        <time>2015-05-29T09:13:15Z</time>
      </trkpt>
      <trkpt lat="46.02998" lon="4.91229">
        <ele>10537.15</ele>
        <time>2015-05-29T09:13:24Z</time>
      </trkpt>
      <trkpt lat="46.04618" lon="4.90393">
        <ele>10536.19</ele>
        <time>2015-05-29T09:13:33Z</time>
      </trkpt>
      <trkpt lat="46.06277" lon="4.89697">
        <ele>10535.23</ele>
        <time>2015-05-29T09:13:42Z</time>
      </trkpt>
      <trkpt lat="46.10734" lon="4.87985">
        <ele>10532.34</ele>
        <time>2015-05-29T09:14:06Z</time>
      </trkpt>
      <trkpt lat="46.12184" lon="4.87285">
        <ele>10532.34</ele>
        <time>2015-05-29T09:14:14Z</time>
      </trkpt>
      <trkpt lat="46.13772" lon="4.86363">
        <ele>10531.86</ele>
        <time>2015-05-29T09:14:23Z</time>
      </trkpt>
      <trkpt lat="46.16363" lon="4.84655">
        <ele>10528.98</ele>
        <time>2015-05-29T09:14:38Z</time>
      </trkpt>
      <trkpt lat="46.23294" lon="4.80122">
        <ele>10525.13</ele>
        <time>2015-05-29T09:15:18Z</time>
      </trkpt>
      <trkpt lat="46.28504" lon="4.76767">
        <ele>10526.09</ele>
        <time>2015-05-29T09:15:48Z</time>
      </trkpt>
      <trkpt lat="46.33533" lon="4.73523">
        <ele>10525.61</ele>
        <time>2015-05-29T09:16:17Z</time>
      </trkpt>
      <trkpt lat="46.37679" lon="4.70837">
        <ele>10527.05</ele>
        <time>2015-05-29T09:16:41Z</time>
      </trkpt>
      <trkpt lat="46.41812" lon="4.68138">
        <ele>10524.17</ele>
        <time>2015-05-29T09:17:05Z</time>
      </trkpt>
      <trkpt lat="46.46636" lon="4.64985">
        <ele>10519.84</ele>
        <time>2015-05-29T09:17:33Z</time>
      </trkpt>
      <trkpt lat="46.51813" lon="4.61601">
        <ele>10521.29</ele>
        <time>2015-05-29T09:18:03Z</time>
      </trkpt>
      <trkpt lat="46.57168" lon="4.58091">
        <ele>10524.17</ele>
        <time>2015-05-29T09:18:34Z</time>
      </trkpt>
      <trkpt lat="46.6201" lon="4.54906">
        <ele>10529.46</ele>
        <time>2015-05-29T09:19:02Z</time>
      </trkpt>
      <trkpt lat="46.65982" lon="4.5229">
        <ele>10536.19</ele>
        <time>2015-05-29T09:19:25Z</time>
      </trkpt>
      <trkpt lat="46.70287" lon="4.49446">
        <ele>10542.44</ele>
        <time>2015-05-29T09:19:50Z</time>
      </trkpt>
      <trkpt lat="46.74759" lon="4.46474">
        <ele>10530.9</ele>
        <time>2015-05-29T09:20:16Z</time>
      </trkpt>
      <trkpt lat="46.79228" lon="4.4351">
        <ele>10524.65</ele>
        <time>2015-05-29T09:20:42Z</time>
      </trkpt>
      <trkpt lat="46.82834" lon="4.41123">
        <ele>10526.57</ele>
        <time>2015-05-29T09:21:03Z</time>
      </trkpt>
      <trkpt lat="46.87641" lon="4.37929">
        <ele>10517.44</ele>
        <time>2015-05-29T09:21:31Z</time>
      </trkpt>
      <trkpt lat="46.92263" lon="4.34859">
        <ele>10510.23</ele>
        <time>2015-05-29T09:21:58Z</time>
      </trkpt>
      <trkpt lat="46.96195" lon="4.32234">
        <ele>10511.67</ele>
        <time>2015-05-29T09:22:21Z</time>
      </trkpt>
      <trkpt lat="47.00985" lon="4.29021">
        <ele>10509.75</ele>
        <time>2015-05-29T09:22:49Z</time>
      </trkpt>
      <trkpt lat="47.0509" lon="4.2627">
        <ele>10510.23</ele>
        <time>2015-05-29T09:23:13Z</time>
      </trkpt>
      <trkpt lat="47.10056" lon="4.22938">
        <ele>10510.23</ele>
        <time>2015-05-29T09:23:42Z</time>
      </trkpt>
      <trkpt lat="47.13138" lon="4.20867">
        <ele>10513.6</ele>
        <time>2015-05-29T09:24:00Z</time>
      </trkpt>
      <trkpt lat="47.16564" lon="4.18583">
        <ele>10517.92</ele>
        <time>2015-05-29T09:24:20Z</time>
      </trkpt>
      <trkpt lat="47.20668" lon="4.15834">
        <ele>10522.25</ele>
        <time>2015-05-29T09:24:44Z</time>
      </trkpt>
      <trkpt lat="47.25789" lon="4.12382">
        <ele>10527.54</ele>
        <time>2015-05-29T09:25:14Z</time>
      </trkpt>
      <trkpt lat="47.30037" lon="4.09458">
        <ele>10524.17</ele>
        <time>2015-05-29T09:25:39Z</time>
      </trkpt>
      <trkpt lat="47.35834" lon="4.05537">
        <ele>10508.31</ele>
        <time>2015-05-29T09:26:13Z</time>
      </trkpt>
      <trkpt lat="47.41282" lon="4.01839">
        <ele>10500.62</ele>
        <time>2015-05-29T09:26:45Z</time>
      </trkpt>
      <trkpt lat="47.44855" lon="3.9941">
        <ele>10499.66</ele>
        <time>2015-05-29T09:27:06Z</time>
      </trkpt>
      <trkpt lat="47.49958" lon="3.95929">
        <ele>10501.58</ele>
        <time>2015-05-29T09:27:36Z</time>
      </trkpt>
      <trkpt lat="47.54383" lon="3.92902">
        <ele>10493.41</ele>
        <time>2015-05-29T09:28:02Z</time>
      </trkpt>
      <trkpt lat="47.58807" lon="3.89862">
        <ele>10491.49</ele>
        <time>2015-05-29T09:28:28Z</time>
      </trkpt>
      <trkpt lat="47.63241" lon="3.86826">
        <ele>10491.49</ele>
        <time>2015-05-29T09:28:54Z</time>
      </trkpt>
      <trkpt lat="47.67683" lon="3.83768">
        <ele>10490.52</ele>
        <time>2015-05-29T09:29:20Z</time>
      </trkpt>
      <trkpt lat="47.71962" lon="3.80834">
        <ele>10488.6</ele>
        <time>2015-05-29T09:29:45Z</time>
      </trkpt>
      <trkpt lat="47.77439" lon="3.7706">
        <ele>10486.68</ele>
        <time>2015-05-29T09:30:17Z</time>
      </trkpt>
      <trkpt lat="47.82567" lon="3.73502">
        <ele>10484.76</ele>
        <time>2015-05-29T09:30:47Z</time>
      </trkpt>
      <trkpt lat="47.87695" lon="3.69951">
        <ele>10480.43</ele>
        <time>2015-05-29T09:31:17Z</time>
      </trkpt>
      <trkpt lat="47.92126" lon="3.66866">
        <ele>10480.91</ele>
        <time>2015-05-29T09:31:43Z</time>
      </trkpt>
      <trkpt lat="47.96209" lon="3.64023">
        <ele>10484.28</ele>
        <time>2015-05-29T09:32:07Z</time>
      </trkpt>
      <trkpt lat="47.99944" lon="3.61423">
        <ele>10485.24</ele>
        <time>2015-05-29T09:32:29Z</time>
      </trkpt>
      <trkpt lat="48.04855" lon="3.57983">
        <ele>10483.31</ele>
        <time>2015-05-29T09:32:58Z</time>
      </trkpt>
      <trkpt lat="48.09929" lon="3.54442">
        <ele>10478.99</ele>
        <time>2015-05-29T09:33:28Z</time>
      </trkpt>
      <trkpt lat="48.14653" lon="3.51129">
        <ele>10477.55</ele>
        <time>2015-05-29T09:33:56Z</time>
      </trkpt>
      <trkpt lat="48.18357" lon="3.48518">
        <ele>10478.51</ele>
        <time>2015-05-29T09:34:18Z</time>
      </trkpt>
      <trkpt lat="48.22239" lon="3.45794">
        <ele>10476.1</ele>
        <time>2015-05-29T09:34:41Z</time>
      </trkpt>
      <trkpt lat="48.25613" lon="3.43416">
        <ele>10472.26</ele>
        <time>2015-05-29T09:35:01Z</time>
      </trkpt>
      <trkpt lat="48.30669" lon="3.39852">
        <ele>10466.97</ele>
        <time>2015-05-29T09:35:31Z</time>
      </trkpt>
      <trkpt lat="48.35216" lon="3.36634">
        <ele>10462.17</ele>
        <time>2015-05-29T09:35:58Z</time>
      </trkpt>
      <trkpt lat="48.39592" lon="3.33538">
        <ele>10459.28</ele>
        <time>2015-05-29T09:36:24Z</time>
      </trkpt>
      <trkpt lat="48.41748" lon="3.31921">
        <ele>10459.28</ele>
        <time>2015-05-29T09:36:37Z</time>
      </trkpt>
      <trkpt lat="48.44672" lon="3.29546">
        <ele>10457.84</ele>
        <time>2015-05-29T09:36:55Z</time>
      </trkpt>
      <trkpt lat="48.492" lon="3.25808">
        <ele>10457.84</ele>
        <time>2015-05-29T09:37:23Z</time>
      </trkpt>
      <trkpt lat="48.53588" lon="3.22246">
        <ele>10458.8</ele>
        <time>2015-05-29T09:37:50Z</time>
      </trkpt>
      <trkpt lat="48.57834" lon="3.18852">
        <ele>10459.28</ele>
        <time>2015-05-29T09:38:16Z</time>
      </trkpt>
      <trkpt lat="48.62088" lon="3.15448">
        <ele>10457.36</ele>
        <time>2015-05-29T09:38:42Z</time>
      </trkpt>
      <trkpt lat="48.66837" lon="3.11643">
        <ele>10448.71</ele>
        <time>2015-05-29T09:39:11Z</time>
      </trkpt>
      <trkpt lat="48.72381" lon="3.07168">
        <ele>10449.19</ele>
        <time>2015-05-29T09:39:45Z</time>
      </trkpt>
      <trkpt lat="48.76301" lon="3.0402">
        <ele>10452.07</ele>
        <time>2015-05-29T09:40:09Z</time>
      </trkpt>
      <trkpt lat="48.78313" lon="3.02604">
        <ele>10450.63</ele>
        <time>2015-05-29T09:40:21Z</time>
      </trkpt>
      <trkpt lat="48.7987" lon="3.01683">
        <ele>10449.19</ele>
        <time>2015-05-29T09:40:30Z</time>
      </trkpt>
      <trkpt lat="48.81462" lon="3.00901">
        <ele>10447.26</ele>
        <time>2015-05-29T09:40:39Z</time>
      </trkpt>
      <trkpt lat="48.82933" lon="3.00347">
        <ele>10442.94</ele>
        <time>2015-05-29T09:40:47Z</time>
      </trkpt>
      <trkpt lat="48.86458" lon="2.99178">
        <ele>10408.81</ele>
        <time>2015-05-29T09:41:06Z</time>
      </trkpt>
      <trkpt lat="48.89803" lon="2.98077">
        <ele>10302.11</ele>
        <time>2015-05-29T09:41:24Z</time>
      </trkpt>
      <trkpt lat="48.931" lon="2.9689">
        <ele>10176.65</ele>
        <time>2015-05-29T09:41:42Z</time>
      </trkpt>
      <trkpt lat="48.96703" lon="2.95583">
        <ele>10047.84</ele>
        <time>2015-05-29T09:42:02Z</time>
      </trkpt>
      <trkpt lat="49.00652" lon="2.94094">
        <ele>9846.44</ele>
        <time>2015-05-29T09:42:24Z</time>
      </trkpt>
      <trkpt lat="49.05097" lon="2.92456">
        <ele>9683.98</ele>
        <time>2015-05-29T09:42:49Z</time>
      </trkpt>
      <trkpt lat="49.0896" lon="2.91042">
        <ele>9555.16</ele>
        <time>2015-05-29T09:43:11Z</time>
      </trkpt>
      <trkpt lat="49.13162" lon="2.89474">
        <ele>9405.2</ele>
        <time>2015-05-29T09:43:35Z</time>
      </trkpt>
      <trkpt lat="49.17547" lon="2.8785">
        <ele>9258.11</ele>
        <time>2015-05-29T09:44:00Z</time>
      </trkpt>
      <trkpt lat="49.20206" lon="2.86879">
        <ele>9184.57</ele>
        <time>2015-05-29T09:44:15Z</time>
      </trkpt>
      <trkpt lat="49.2358" lon="2.85645">
        <ele>9120.17</ele>
        <time>2015-05-29T09:44:34Z</time>
      </trkpt>
      <trkpt lat="49.26015" lon="2.84736">
        <ele>9083.63</ele>
        <time>2015-05-29T09:44:48Z</time>
      </trkpt>
      <trkpt lat="49.29627" lon="2.83378">
        <ele>9016.82</ele>
        <time>2015-05-29T09:45:09Z</time>
      </trkpt>
      <trkpt lat="49.33207" lon="2.82025">
        <ele>8936.07</ele>
        <time>2015-05-29T09:45:30Z</time>
      </trkpt>
      <trkpt lat="49.38317" lon="2.80118">
        <ele>8772.65</ele>
        <time>2015-05-29T09:46:00Z</time>
      </trkpt>
      <trkpt lat="49.43582" lon="2.7815">
        <ele>8608.26</ele>
        <time>2015-05-29T09:46:31Z</time>
      </trkpt>
      <trkpt lat="49.44791" lon="2.77796">
        <ele>8571.25</ele>
        <time>2015-05-29T09:46:38Z</time>
      </trkpt>
      <trkpt lat="49.45685" lon="2.77696">
        <ele>8545.78</ele>
        <time>2015-05-29T09:46:43Z</time>
      </trkpt>
      <trkpt lat="49.47493" lon="2.77684">
        <ele>8494.35</ele>
        <time>2015-05-29T09:46:53Z</time>
      </trkpt>
      <trkpt lat="49.51643" lon="2.77765">
        <ele>8373.7</ele>
        <time>2015-05-29T09:47:16Z</time>
      </trkpt>
      <trkpt lat="49.5648" lon="2.77828">
        <ele>8227.1</ele>
        <time>2015-05-29T09:47:43Z</time>
      </trkpt>
      <trkpt lat="49.61106" lon="2.77883">
        <ele>8081.94</ele>
        <time>2015-05-29T09:48:09Z</time>
      </trkpt>
      <trkpt lat="49.67106" lon="2.7794">
        <ele>7897.37</ele>
        <time>2015-05-29T09:48:43Z</time>
      </trkpt>
      <trkpt lat="49.7235" lon="2.77986">
        <ele>7740.67</ele>
        <time>2015-05-29T09:49:13Z</time>
      </trkpt>
      <trkpt lat="49.77196" lon="2.78045">
        <ele>7595.03</ele>
        <time>2015-05-29T09:49:41Z</time>
      </trkpt>
      <trkpt lat="49.80633" lon="2.78161">
        <ele>7493.13</ele>
        <time>2015-05-29T09:50:01Z</time>
      </trkpt>
      <trkpt lat="49.81666" lon="2.78398">
        <ele>7463.33</ele>
        <time>2015-05-29T09:50:07Z</time>
      </trkpt>
      <trkpt lat="49.82691" lon="2.78785">
        <ele>7433.53</ele>
        <time>2015-05-29T09:50:13Z</time>
      </trkpt>
      <trkpt lat="49.83868" lon="2.79403">
        <ele>7398.92</ele>
        <time>2015-05-29T09:50:20Z</time>
      </trkpt>
      <trkpt lat="49.85014" lon="2.80191">
        <ele>7364.32</ele>
        <time>2015-05-29T09:50:27Z</time>
      </trkpt>
      <trkpt lat="49.86123" lon="2.8113">
        <ele>7330.19</ele>
        <time>2015-05-29T09:50:34Z</time>
      </trkpt>
      <trkpt lat="49.875" lon="2.82517">
        <ele>7293.18</ele>
        <time>2015-05-29T09:50:43Z</time>
      </trkpt>
      <trkpt lat="49.91157" lon="2.86188">
        <ele>7185.99</ele>
        <time>2015-05-29T09:51:07Z</time>
      </trkpt>
      <trkpt lat="49.95253" lon="2.90242">
        <ele>7065.35</ele>
        <time>2015-05-29T09:51:34Z</time>
      </trkpt>
      <trkpt lat="49.99284" lon="2.94243">
        <ele>6919.71</ele>
        <time>2015-05-29T09:52:01Z</time>
      </trkpt>
      <trkpt lat="50.02394" lon="2.97335">
        <ele>6800.5</ele>
        <time>2015-05-29T09:52:22Z</time>
      </trkpt>
      <trkpt lat="50.06525" lon="3.0143">
        <ele>6650.54</ele>
        <time>2015-05-29T09:52:50Z</time>
      </trkpt>
      <trkpt lat="50.09432" lon="3.04329">
        <ele>6543.35</ele>
        <time>2015-05-29T09:53:10Z</time>
      </trkpt>
      <trkpt lat="50.1273" lon="3.07594">
        <ele>6420.3</ele>
        <time>2015-05-29T09:53:33Z</time>
      </trkpt>
      <trkpt lat="50.14992" lon="3.09885">
        <ele>6353.01</ele>
        <time>2015-05-29T09:53:49Z</time>
      </trkpt>
      <trkpt lat="50.17645" lon="3.12498">
        <ele>6265.05</ele>
        <time>2015-05-29T09:54:08Z</time>
      </trkpt>
      <trkpt lat="50.19977" lon="3.14824">
        <ele>6185.26</ele>
        <time>2015-05-29T09:54:25Z</time>
      </trkpt>
      <trkpt lat="50.22445" lon="3.17272">
        <ele>6072.31</ele>
        <time>2015-05-29T09:54:43Z</time>
      </trkpt>
      <trkpt lat="50.26724" lon="3.21587">
        <ele>5861.3</ele>
        <time>2015-05-29T09:55:15Z</time>
      </trkpt>
      <trkpt lat="50.31516" lon="3.2649">
        <ele>5659.9</ele>
        <time>2015-05-29T09:55:51Z</time>
      </trkpt>
      <trkpt lat="50.35929" lon="3.30926">
        <ele>5495.03</ele>
        <time>2015-05-29T09:56:24Z</time>
      </trkpt>
      <trkpt lat="50.39824" lon="3.34793">
        <ele>5339.3</ele>
        <time>2015-05-29T09:56:53Z</time>
      </trkpt>
      <trkpt lat="50.42041" lon="3.37007">
        <ele>5216.25</ele>
        <time>2015-05-29T09:57:10Z</time>
      </trkpt>
      <trkpt lat="50.44708" lon="3.39779">
        <ele>4996.11</ele>
        <time>2015-05-29T09:57:31Z</time>
      </trkpt>
      <trkpt lat="50.47742" lon="3.42909">
        <ele>4714.92</ele>
        <time>2015-05-29T09:57:55Z</time>
      </trkpt>
      <trkpt lat="50.50401" lon="3.4562">
        <ele>4521.7</ele>
        <time>2015-05-29T09:58:16Z</time>
      </trkpt>
      <trkpt lat="50.53084" lon="3.48269">
        <ele>4345.3</ele>
        <time>2015-05-29T09:58:37Z</time>
      </trkpt>
      <trkpt lat="50.55653" lon="3.5077">
        <ele>4180.43</ele>
        <time>2015-05-29T09:58:57Z</time>
      </trkpt>
      <trkpt lat="50.58997" lon="3.54013">
        <ele>3969.42</ele>
        <time>2015-05-29T09:59:23Z</time>
      </trkpt>
      <trkpt lat="50.59841" lon="3.55041">
        <ele>3912.22</ele>
        <time>2015-05-29T09:59:30Z</time>
      </trkpt>
      <trkpt lat="50.61451" lon="3.57228">
        <ele>3798.79</ele>
        <time>2015-05-29T09:59:44Z</time>
      </trkpt>
      <trkpt lat="50.6196" lon="3.58118">
        <ele>3758.41</ele>
        <time>2015-05-29T09:59:49Z</time>
      </trkpt>
      <trkpt lat="50.62397" lon="3.5911">
        <ele>3719.48</ele>
        <time>2015-05-29T09:59:54Z</time>
      </trkpt>
      <trkpt lat="50.62762" lon="3.60192">
        <ele>3681.03</ele>
        <time>2015-05-29T09:59:59Z</time>
      </trkpt>
      <trkpt lat="50.6303" lon="3.6133">
        <ele>3643.53</ele>
        <time>2015-05-29T10:00:04Z</time>
      </trkpt>
      <trkpt lat="50.63228" lon="3.62715">
        <ele>3597.39</ele>
        <time>2015-05-29T10:00:10Z</time>
      </trkpt>
      <trkpt lat="50.63605" lon="3.65997">
        <ele>3490.68</ele>
        <time>2015-05-29T10:00:24Z</time>
      </trkpt>
      <trkpt lat="50.64124" lon="3.70617">
        <ele>3344.56</ele>
        <time>2015-05-29T10:00:44Z</time>
      </trkpt>
      <trkpt lat="50.64745" lon="3.75855">
        <ele>3190.75</ele>
        <time>2015-05-29T10:01:07Z</time>
      </trkpt>
      <trkpt lat="50.65325" lon="3.80175">
        <ele>3059.05</ele>
        <time>2015-05-29T10:01:26Z</time>
      </trkpt>
      <trkpt lat="50.65999" lon="3.84936">
        <ele>2912.93</ele>
        <time>2015-05-29T10:01:47Z</time>
      </trkpt>
      <trkpt lat="50.66712" lon="3.90119">
        <ele>2751.43</ele>
        <time>2015-05-29T10:02:10Z</time>
      </trkpt>
      <trkpt lat="50.67211" lon="3.9416">
        <ele>2624.54</ele>
        <time>2015-05-29T10:02:28Z</time>
      </trkpt>
      <trkpt lat="50.67259" lon="3.95282">
        <ele>2591.85</ele>
        <time>2015-05-29T10:02:33Z</time>
      </trkpt>
      <trkpt lat="50.67208" lon="3.96617">
        <ele>2553.88</ele>
        <time>2015-05-29T10:02:39Z</time>
      </trkpt>
      <trkpt lat="50.66977" lon="3.99702">
        <ele>2468.32</ele>
        <time>2015-05-29T10:02:53Z</time>
      </trkpt>
      <trkpt lat="50.66649" lon="4.03877">
        <ele>2364.02</ele>
        <time>2015-05-29T10:03:12Z</time>
      </trkpt>
      <trkpt lat="50.66143" lon="4.10163">
        <ele>2224.63</ele>
        <time>2015-05-29T10:03:41Z</time>
      </trkpt>
      <trkpt lat="50.65714" lon="4.15747">
        <ele>2106.39</ele>
        <time>2015-05-29T10:04:07Z</time>
      </trkpt>
      <trkpt lat="50.65227" lon="4.22532">
        <ele>1962.19</ele>
        <time>2015-05-29T10:04:39Z</time>
      </trkpt>
      <trkpt lat="50.64879" lon="4.28054">
        <ele>1862.21</ele>
        <time>2015-05-29T10:05:05Z</time>
      </trkpt>
      <trkpt lat="50.64544" lon="4.34207">
        <ele>1739.16</ele>
        <time>2015-05-29T10:05:34Z</time>
      </trkpt>
      <trkpt lat="50.64188" lon="4.39895">
        <ele>1592.08</ele>
        <time>2015-05-29T10:06:01Z</time>
      </trkpt>
      <trkpt lat="50.63962" lon="4.42769">
        <ele>1520.46</ele>
        <time>2015-05-29T10:06:15Z</time>
      </trkpt>
      <trkpt lat="50.63707" lon="4.4593">
        <ele>1448.84</ele>
        <time>2015-05-29T10:06:31Z</time>
      </trkpt>
      <trkpt lat="50.63529" lon="4.47058">
        <ele>1425.29</ele>
        <time>2015-05-29T10:06:37Z</time>
      </trkpt>
      <trkpt lat="50.6328" lon="4.47906">
        <ele>1407.03</ele>
        <time>2015-05-29T10:06:42Z</time>
      </trkpt>
      <trkpt lat="50.62774" lon="4.49091">
        <ele>1426.25</ele>
        <time>2015-05-29T10:06:50Z</time>
      </trkpt>
      <trkpt lat="50.61713" lon="4.51551">
        <ele>1405.58</ele>
        <time>2015-05-29T10:07:07Z</time>
      </trkpt>
      <trkpt lat="50.60747" lon="4.53772">
        <ele>1384.44</ele>
        <time>2015-05-29T10:07:23Z</time>
      </trkpt>
      <trkpt lat="50.59627" lon="4.56333">
        <ele>1351.27</ele>
        <time>2015-05-29T10:07:42Z</time>
      </trkpt>
      <trkpt lat="50.58732" lon="4.58362">
        <ele>1320.51</ele>
        <time>2015-05-29T10:07:58Z</time>
      </trkpt>
      <trkpt lat="50.57891" lon="4.60323">
        <ele>1295.03</ele>
        <time>2015-05-29T10:08:14Z</time>
      </trkpt>
      <trkpt lat="50.57086" lon="4.62206">
        <ele>1268.6</ele>
        <time>2015-05-29T10:08:30Z</time>
      </trkpt>
      <trkpt lat="50.56685" lon="4.63068">
        <ele>1252.74</ele>
        <time>2015-05-29T10:08:38Z</time>
      </trkpt>
      <trkpt lat="50.56321" lon="4.63572">
        <ele>1243.6</ele>
        <time>2015-05-29T10:08:44Z</time>
      </trkpt>
      <trkpt lat="50.55656" lon="4.6425">
        <ele>1236.87</ele>
        <time>2015-05-29T10:08:54Z</time>
      </trkpt>
      <trkpt lat="50.54889" lon="4.64839">
        <ele>1228.7</ele>
        <time>2015-05-29T10:09:05Z</time>
      </trkpt>
      <trkpt lat="50.54199" lon="4.65264">
        <ele>1219.57</ele>
        <time>2015-05-29T10:09:15Z</time>
      </trkpt>
      <trkpt lat="50.53807" lon="4.65326">
        <ele>1206.59</ele>
        <time>2015-05-29T10:09:20Z</time>
      </trkpt>
      <trkpt lat="50.53427" lon="4.65238">
        <ele>1191.69</ele>
        <time>2015-05-29T10:09:25Z</time>
      </trkpt>
      <trkpt lat="50.5302" lon="4.64956">
        <ele>1176.31</ele>
        <time>2015-05-29T10:09:31Z</time>
      </trkpt>
      <trkpt lat="50.52539" lon="4.64437">
        <ele>1139.3</ele>
        <time>2015-05-29T10:09:39Z</time>
      </trkpt>
      <trkpt lat="50.51808" lon="4.63534">
        <ele>1101.81</ele>
        <time>2015-05-29T10:09:52Z</time>
      </trkpt>
      <trkpt lat="50.51358" lon="4.62796">
        <ele>1066.24</ele>
        <time>2015-05-29T10:10:01Z</time>
      </trkpt>
      <trkpt lat="50.50881" lon="4.61793">
        <ele>1040.76</ele>
        <time>2015-05-29T10:10:12Z</time>
      </trkpt>
      <trkpt lat="50.50468" lon="4.60723">
        <ele>1022.02</ele>
        <time>2015-05-29T10:10:23Z</time>
      </trkpt>
      <trkpt lat="50.49977" lon="4.59283">
        <ele>1000.87</ele>
        <time>2015-05-29T10:10:37Z</time>
      </trkpt>
      <trkpt lat="50.49437" lon="4.57604">
        <ele>969.15</ele>
        <time>2015-05-29T10:10:53Z</time>
      </trkpt>
      <trkpt lat="50.48962" lon="4.55919">
        <ele>914.83</ele>
        <time>2015-05-29T10:11:09Z</time>
      </trkpt>
      <trkpt lat="50.48075" lon="4.52997">
        <ele>852.35</ele>
        <time>2015-05-29T10:11:39Z</time>
      </trkpt>
      <trkpt lat="50.48046" lon="4.529">
        <ele>896.09</ele>
        <time>2015-05-29T10:11:41Z</time>
      </trkpt>
      <trkpt lat="50.48092" lon="4.5259">
        <ele>501.95</ele>
        <time>2015-05-29T10:11:45Z</time>
      </trkpt>
      <trkpt lat="50.48039" lon="4.52409">
        <ele>424.56</ele>
        <time>2015-05-29T10:11:47Z</time>
      </trkpt>
      <trkpt lat="50.47642" lon="4.51015">
        <ele>362.07</ele>
        <time>2015-05-29T10:12:03Z</time>
      </trkpt>
      <trkpt lat="50.47171" lon="4.49383">
        <ele>291.9</ele>
        <time>2015-05-29T10:12:22Z</time>
      </trkpt>
      <trkpt lat="50.46775" lon="4.48007">
        <ele>232.3</ele>
        <time>2015-05-29T10:12:38Z</time>
      </trkpt>
      <trkpt lat="50.46347" lon="4.46517">
        <ele>179.42</ele>
        <time>2015-05-29T10:12:55Z</time>
      </trkpt>
      <trkpt lat="50.46138" lon="4.4579">
        <ele>162.6</ele>
        <time>2015-05-29T10:13:04Z</time>
      </trkpt>
      <trkpt lat="50.46028" lon="4.4541">
        <ele>165</ele>
        <time>2015-05-29T10:13:11Z</time>
      </trkpt>
      <trkpt lat="50.45959" lon="4.4517">
        <ele>170.29</ele>
        <time>2015-05-29T10:13:18Z</time>
      </trkpt>
      <trkpt lat="50.45888" lon="4.44946">
        <ele>173.66</ele>
        <time>2015-05-29T10:13:29Z</time>
      </trkpt>
      <trkpt lat="50.45874" lon="4.44894">
        <ele>173.66</ele>
        <time>2015-05-29T10:13:33Z</time>
      </trkpt>
      <trkpt lat="50.4588" lon="4.44826">
        <ele>173.66</ele>
        <time>2015-05-29T10:13:39Z</time>
      </trkpt>
      <trkpt lat="50.45906" lon="4.44766">
        <ele>173.66</ele>
        <time>2015-05-29T10:13:45Z</time>
      </trkpt>
      <trkpt lat="50.45947" lon="4.44741">
        <ele>173.17</ele>
        <time>2015-05-29T10:13:50Z</time>
      </trkpt>
      <trkpt lat="50.45974" lon="4.44736">
        <ele>172.69</ele>
        <time>2015-05-29T10:13:53Z</time>
      </trkpt>
      <trkpt lat="50.46055" lon="4.4486">
        <ele>189.52</ele>
        <time>2015-05-29T10:14:03Z</time>
      </trkpt>
      <trkpt lat="50.46159" lon="4.45223">
        <ele>199.13</ele>
        <time>2015-05-29T10:14:28Z</time>
      </trkpt>
      <trkpt lat="50.46268" lon="4.45603">
        <ele>205.86</ele>
        <time>2015-05-29T10:14:48Z</time>
      </trkpt>
      <trkpt lat="50.4638" lon="4.45982">
        <ele>208.74</ele>
        <time>2015-05-29T10:15:07Z</time>
      </trkpt>
      <trkpt lat="50.46487" lon="4.46339">
        <ele>212.59</ele>
        <time>2015-05-29T10:15:26Z</time>
      </trkpt>
      <trkpt lat="50.46564" lon="4.46599">
        <ele>215.47</ele>
        <time>2015-05-29T10:15:42Z</time>
      </trkpt>
      <trkpt lat="50.46616" lon="4.46793">
        <ele>210.67</ele>
        <time>2015-05-29T10:15:56Z</time>
      </trkpt>
      <trkpt lat="50.46653" lon="4.46823">
        <ele>195.28</ele>
        <time>2015-05-29T10:16:06Z</time>
      </trkpt>
      <trkpt lat="50.4668" lon="4.46819">
        <ele>192.4</ele>
        <time>2015-05-29T10:16:12Z</time>
      </trkpt>
      <trkpt lat="50.46703" lon="4.46846">
        <ele>191.44</ele>
        <time>2015-05-29T10:16:19Z</time>
      </trkpt>
      <trkpt lat="50.46731" lon="4.46935">
        <ele>187.59</ele>
        <time>2015-05-29T10:16:38Z</time>
      </trkpt>
      <trkpt lat="50.46792" lon="4.4689">
        <ele>175.58</ele>
        <time>2015-05-29T10:16:58Z</time>
      </trkpt>
    </trkseg>
  </trk>
</gpx>